RYR7929 EDDN-EGSS
Flight info
| Callsign | RYR7929 |
|---|---|
| Flight time | 1h 18m |
| Altitude | 32000 |
| Route | SULUS1C SULUS L604 BIGGE DCT NOGRO M40 RINIS |
| Aircraft | B738/M-SDE2E3FGHIRWXY/LB1 |
Departure
| Time | 2026-05-01 07:50 |
|---|---|
| Airport | Nuremberg Airport (EDDN) |
Arrival
| Time | 2026-05-01 09:09 |
|---|---|
| Airport | London Stansted Airport (EGSS) |
| Time | Latitude | Longitude | Altitude | Speed | Heading |
|---|---|---|---|---|---|
| 2026-05-01 07:23 | 49.49524 | 11.07725 | 1032 ft | 0 kts | 188° |
| 2026-05-01 07:39 | 49.49526 | 11.07726 | 1032 ft | 1 kts | 188° |
| 2026-05-01 07:40 | 49.49543 | 11.07730 | 1033 ft | 3 kts | 192° |
| 2026-05-01 07:40 | 49.49560 | 11.07736 | 1034 ft | 3 kts | 197° |
| 2026-05-01 07:40 | 49.49579 | 11.07746 | 1036 ft | 3 kts | 203° |
| 2026-05-01 07:40 | 49.49596 | 11.07759 | 1037 ft | 2 kts | 210° |
| 2026-05-01 07:41 | 49.49602 | 11.07765 | 1037 ft | 0 kts | 211° |
| 2026-05-01 07:41 | 49.49603 | 11.07765 | 1037 ft | 1 kts | 211° |
| 2026-05-01 07:43 | 49.49594 | 11.07737 | 1037 ft | 7 kts | 251° |
| 2026-05-01 07:43 | 49.49600 | 11.07641 | 1036 ft | 11 kts | 280° |
| 2026-05-01 07:43 | 49.49632 | 11.07315 | 1034 ft | 14 kts | 279° |
| 2026-05-01 07:44 | 49.49664 | 11.07229 | 1034 ft | 2 kts | 7° |
| 2026-05-01 07:44 | 49.49699 | 11.07231 | 1035 ft | 3 kts | 355° |
| 2026-05-01 07:45 | 49.49717 | 11.07222 | 1036 ft | 3 kts | 335° |
| 2026-05-01 07:45 | 49.49737 | 11.07183 | 1036 ft | 7 kts | 294° |
| 2026-05-01 07:45 | 49.49749 | 11.07081 | 1034 ft | 12 kts | 278° |
| 2026-05-01 07:45 | 49.49762 | 11.06936 | 1031 ft | 15 kts | 277° |
| 2026-05-01 07:46 | 49.49777 | 11.06780 | 1029 ft | 14 kts | 278° |
| 2026-05-01 07:46 | 49.49793 | 11.06631 | 1026 ft | 14 kts | 279° |
| 2026-05-01 07:46 | 49.49822 | 11.06351 | 1030 ft | 13 kts | 279° |
| 2026-05-01 07:47 | 49.49834 | 11.06215 | 1025 ft | 13 kts | 279° |
| 2026-05-01 07:47 | 49.49851 | 11.06094 | 1031 ft | 12 kts | 281° |
| 2026-05-01 07:47 | 49.49871 | 11.05995 | 1029 ft | 6 kts | 323° |
| 2026-05-01 07:47 | 49.49903 | 11.05972 | 1030 ft | 6 kts | 337° |
| 2026-05-01 07:48 | 49.49978 | 11.05933 | 1031 ft | 6 kts | 350° |
| 2026-05-01 07:48 | 49.50019 | 11.05933 | 1031 ft | 6 kts | 8° |
| 2026-05-01 07:48 | 49.50050 | 11.05958 | 1031 ft | 3 kts | 59° |
| 2026-05-01 07:49 | 49.50049 | 11.05987 | 1031 ft | 4 kts | 99° |
| 2026-05-01 07:49 | 49.49983 | 11.06664 | 1033 ft | 94 kts | 99° |
| 2026-05-01 07:49 | 49.49850 | 11.07960 | 1101 ft | 147 kts | 99° |
| 2026-05-01 07:50 | 49.49660 | 11.09635 | 1549 ft | 167 kts | 97° |
| 2026-05-01 07:50 | 49.49345 | 11.13034 | 3391 ft | 169 kts | 99° |
| 2026-05-01 07:50 | 49.49163 | 11.14989 | 3700 ft | 201 kts | 100° |
| 2026-05-01 07:51 | 49.49143 | 11.17267 | 4068 ft | 222 kts | 84° |
| 2026-05-01 07:51 | 49.49625 | 11.19667 | 4438 ft | 247 kts | 65° |
| 2026-05-01 07:51 | 49.50690 | 11.21822 | 5227 ft | 258 kts | 46° |
| 2026-05-01 07:52 | 49.53554 | 11.25210 | 7123 ft | 263 kts | 39° |
| 2026-05-01 07:52 | 49.54801 | 11.26643 | 7815 ft | 267 kts | 40° |
| 2026-05-01 07:53 | 49.55987 | 11.28027 | 8516 ft | 270 kts | 40° |
| 2026-05-01 07:53 | 49.57543 | 11.29749 | 9366 ft | 277 kts | 30° |
| 2026-05-01 07:53 | 49.59421 | 11.30555 | 10251 ft | 286 kts | 5° |
| 2026-05-01 07:53 | 49.61415 | 11.30148 | 10923 ft | 300 kts | 343° |
| 2026-05-01 07:54 | 49.65462 | 11.26972 | 11363 ft | 352 kts | 333° |
| 2026-05-01 07:55 | 49.72293 | 11.21024 | 12705 ft | 390 kts | 333° |
| 2026-05-01 07:55 | 49.77085 | 11.16941 | 14157 ft | 397 kts | 334° |
| 2026-05-01 07:56 | 49.84378 | 11.10541 | 16002 ft | 410 kts | 324° |
| 2026-05-01 07:56 | 49.88413 | 11.04125 | 17257 ft | 419 kts | 315° |
| 2026-05-01 07:57 | 49.90403 | 11.00810 | 17815 ft | 422 kts | 316° |
| 2026-05-01 07:57 | 49.94470 | 10.94123 | 18966 ft | 429 kts | 316° |
| 2026-05-01 07:58 | 49.98256 | 10.87964 | 19944 ft | 432 kts | 316° |
| 2026-05-01 07:58 | 50.02434 | 10.81171 | 20991 ft | 437 kts | 316° |
| 2026-05-01 07:59 | 50.06650 | 10.74295 | 21984 ft | 442 kts | 316° |
| 2026-05-01 07:59 | 50.10917 | 10.67338 | 22915 ft | 446 kts | 316° |
| 2026-05-01 08:00 | 50.18837 | 10.54373 | 24460 ft | 455 kts | 315° |
| 2026-05-01 08:01 | 50.25383 | 10.43545 | 25555 ft | 460 kts | 316° |
| 2026-05-01 08:01 | 50.27635 | 10.39978 | 25889 ft | 461 kts | 317° |
| 2026-05-01 08:01 | 50.29898 | 10.36400 | 26207 ft | 463 kts | 316° |
| 2026-05-01 08:02 | 50.34426 | 10.29160 | 26877 ft | 467 kts | 316° |
| 2026-05-01 08:02 | 50.36624 | 10.25390 | 27174 ft | 470 kts | 312° |
| 2026-05-01 08:03 | 50.40895 | 10.17610 | 27818 ft | 471 kts | 316° |
| 2026-05-01 08:03 | 50.43210 | 10.13997 | 28261 ft | 469 kts | 317° |
| 2026-05-01 08:03 | 50.47679 | 10.06702 | 29219 ft | 465 kts | 314° |
| 2026-05-01 08:04 | 50.52039 | 9.99139 | 30088 ft | 462 kts | 314° |
| 2026-05-01 08:04 | 50.56286 | 9.91683 | 30912 ft | 459 kts | 312° |
| 2026-05-01 08:05 | 50.60322 | 9.83924 | 31632 ft | 457 kts | 311° |
| 2026-05-01 08:05 | 50.62332 | 9.80043 | 32006 ft | 456 kts | 311° |
| 2026-05-01 08:05 | 50.64344 | 9.76200 | 32351 ft | 454 kts | 311° |
| 2026-05-01 08:06 | 50.68387 | 9.68499 | 32409 ft | 456 kts | 311° |
| 2026-05-01 08:07 | 50.76375 | 9.53143 | 32416 ft | 450 kts | 311° |
| 2026-05-01 08:08 | 50.82347 | 9.41725 | 32410 ft | 449 kts | 311° |
| 2026-05-01 08:09 | 50.90282 | 9.26451 | 32420 ft | 450 kts | 311° |
| 2026-05-01 08:09 | 50.94244 | 9.18787 | 32426 ft | 451 kts | 311° |
| 2026-05-01 08:10 | 51.02195 | 9.03335 | 32428 ft | 453 kts | 311° |
| 2026-05-01 08:11 | 51.10147 | 8.87791 | 32422 ft | 453 kts | 310° |
| 2026-05-01 08:12 | 51.16108 | 8.76071 | 32409 ft | 454 kts | 310° |
| 2026-05-01 08:13 | 51.22024 | 8.64361 | 32404 ft | 453 kts | 310° |
| 2026-05-01 08:13 | 51.27935 | 8.52615 | 32396 ft | 452 kts | 310° |
| 2026-05-01 08:14 | 51.31651 | 8.44510 | 32388 ft | 453 kts | 301° |
| 2026-05-01 08:14 | 51.33921 | 8.35105 | 32393 ft | 457 kts | 285° |
| 2026-05-01 08:15 | 51.36000 | 8.20226 | 32381 ft | 457 kts | 284° |
| 2026-05-01 08:16 | 51.37373 | 8.10298 | 32384 ft | 457 kts | 284° |
| 2026-05-01 08:16 | 51.38770 | 8.00376 | 32383 ft | 457 kts | 284° |
| 2026-05-01 08:17 | 51.40171 | 7.90462 | 32380 ft | 457 kts | 284° |
| 2026-05-01 08:17 | 51.41568 | 7.80538 | 32376 ft | 457 kts | 284° |
| 2026-05-01 08:18 | 51.42958 | 7.70589 | 32377 ft | 457 kts | 284° |
| 2026-05-01 08:19 | 51.45711 | 7.50679 | 32375 ft | 458 kts | 284° |
| 2026-05-01 08:19 | 51.47068 | 7.40757 | 32373 ft | 458 kts | 284° |
| 2026-05-01 08:20 | 51.48434 | 7.30702 | 32372 ft | 458 kts | 284° |
| 2026-05-01 08:20 | 51.49782 | 7.20718 | 32370 ft | 458 kts | 283° |
| 2026-05-01 08:21 | 51.51105 | 7.10842 | 32360 ft | 459 kts | 283° |
| 2026-05-01 08:21 | 51.52327 | 7.01676 | 32351 ft | 459 kts | 283° |
| 2026-05-01 08:22 | 51.53651 | 6.91660 | 32354 ft | 459 kts | 283° |
| 2026-05-01 08:22 | 51.54969 | 6.81621 | 32357 ft | 459 kts | 283° |
| 2026-05-01 08:23 | 51.56214 | 6.72071 | 32346 ft | 459 kts | 283° |
| 2026-05-01 08:23 | 51.57517 | 6.62020 | 32349 ft | 460 kts | 283° |
| 2026-05-01 08:24 | 51.58747 | 6.52447 | 32345 ft | 460 kts | 283° |
| 2026-05-01 08:24 | 51.60035 | 6.42363 | 32344 ft | 461 kts | 282° |
| 2026-05-01 08:25 | 51.61295 | 6.32430 | 32348 ft | 461 kts | 282° |
| 2026-05-01 08:25 | 51.62569 | 6.22309 | 32348 ft | 462 kts | 282° |
| 2026-05-01 08:26 | 51.63836 | 6.12167 | 32345 ft | 462 kts | 282° |
| 2026-05-01 08:26 | 51.65092 | 6.02032 | 32343 ft | 462 kts | 281° |
| 2026-05-01 08:27 | 51.66333 | 5.91948 | 32323 ft | 462 kts | 281° |
| 2026-05-01 08:27 | 51.67574 | 5.81789 | 32319 ft | 462 kts | 281° |
| 2026-05-01 08:28 | 51.68806 | 5.71630 | 32321 ft | 462 kts | 281° |
| 2026-05-01 08:28 | 51.70028 | 5.61473 | 32321 ft | 462 kts | 281° |
| 2026-05-01 08:29 | 51.71232 | 5.51379 | 32324 ft | 462 kts | 281° |
| 2026-05-01 08:29 | 51.72438 | 5.41202 | 32322 ft | 462 kts | 280° |
| 2026-05-01 08:30 | 51.73635 | 5.31016 | 32320 ft | 462 kts | 280° |
| 2026-05-01 08:30 | 51.74824 | 5.20817 | 32312 ft | 463 kts | 280° |
| 2026-05-01 08:31 | 51.76005 | 5.10603 | 32302 ft | 463 kts | 279° |
| 2026-05-01 08:31 | 51.77177 | 5.00390 | 32299 ft | 463 kts | 279° |
| 2026-05-01 08:32 | 51.78344 | 4.90133 | 32297 ft | 464 kts | 279° |
| 2026-05-01 08:32 | 51.79503 | 4.79873 | 32298 ft | 464 kts | 279° |
| 2026-05-01 08:33 | 51.80651 | 4.69609 | 32298 ft | 464 kts | 279° |
| 2026-05-01 08:33 | 51.81793 | 4.59331 | 32301 ft | 465 kts | 279° |
| 2026-05-01 08:34 | 51.82924 | 4.49046 | 32294 ft | 465 kts | 278° |
| 2026-05-01 08:34 | 51.84047 | 4.38762 | 32295 ft | 465 kts | 278° |
| 2026-05-01 08:35 | 51.85154 | 4.28529 | 32296 ft | 465 kts | 278° |
| 2026-05-01 08:35 | 51.86261 | 4.18223 | 32296 ft | 465 kts | 278° |
| 2026-05-01 08:36 | 51.87360 | 4.07892 | 32295 ft | 465 kts | 278° |
| 2026-05-01 08:36 | 51.88451 | 3.97564 | 32288 ft | 466 kts | 278° |
| 2026-05-01 08:37 | 51.89530 | 3.87234 | 32290 ft | 465 kts | 277° |
| 2026-05-01 08:37 | 51.90602 | 3.76885 | 32292 ft | 465 kts | 277° |
| 2026-05-01 08:38 | 51.91663 | 3.66554 | 32289 ft | 465 kts | 277° |
| 2026-05-01 08:38 | 51.92714 | 3.56222 | 32289 ft | 465 kts | 277° |
| 2026-05-01 08:39 | 51.93757 | 3.45882 | 32291 ft | 465 kts | 277° |
| 2026-05-01 08:39 | 51.94790 | 3.35548 | 32293 ft | 465 kts | 277° |
| 2026-05-01 08:40 | 51.96308 | 3.20083 | 32284 ft | 465 kts | 275° |
| 2026-05-01 08:40 | 51.96240 | 3.09707 | 32288 ft | 460 kts | 261° |
| 2026-05-01 08:41 | 51.95472 | 2.99408 | 32276 ft | 460 kts | 261° |
| 2026-05-01 08:41 | 51.95092 | 2.94242 | 31882 ft | 466 kts | 261° |
| 2026-05-01 08:41 | 51.94721 | 2.88982 | 31196 ft | 465 kts | 261° |
| 2026-05-01 08:42 | 51.94367 | 2.83807 | 30437 ft | 465 kts | 261° |
| 2026-05-01 08:42 | 51.94015 | 2.78596 | 29515 ft | 465 kts | 261° |
| 2026-05-01 08:42 | 51.93663 | 2.73396 | 28618 ft | 465 kts | 261° |
| 2026-05-01 08:42 | 51.93304 | 2.68179 | 27703 ft | 465 kts | 261° |
| 2026-05-01 08:43 | 51.92948 | 2.63043 | 26764 ft | 465 kts | 261° |
| 2026-05-01 08:43 | 51.92584 | 2.57757 | 25771 ft | 467 kts | 261° |
| 2026-05-01 08:43 | 51.92229 | 2.52617 | 25085 ft | 463 kts | 260° |
| 2026-05-01 08:43 | 51.91873 | 2.47458 | 24386 ft | 458 kts | 260° |
| 2026-05-01 08:44 | 51.91518 | 2.42352 | 23660 ft | 455 kts | 260° |
| 2026-05-01 08:44 | 51.91162 | 2.37293 | 22888 ft | 450 kts | 260° |
| 2026-05-01 08:44 | 51.90809 | 2.32267 | 22182 ft | 445 kts | 261° |
| 2026-05-01 08:44 | 51.90588 | 2.27315 | 21756 ft | 436 kts | 264° |
| 2026-05-01 08:45 | 51.90485 | 2.22405 | 21327 ft | 441 kts | 265° |
| 2026-05-01 08:45 | 51.90410 | 2.17384 | 20865 ft | 449 kts | 265° |
| 2026-05-01 08:45 | 51.90328 | 2.12331 | 20402 ft | 448 kts | 265° |
| 2026-05-01 08:45 | 51.90231 | 2.07313 | 19949 ft | 443 kts | 265° |
| 2026-05-01 08:46 | 51.90118 | 2.02359 | 19503 ft | 440 kts | 264° |
| 2026-05-01 08:46 | 51.90038 | 1.99089 | 19212 ft | 438 kts | 264° |
| 2026-05-01 08:46 | 51.89915 | 1.94177 | 18772 ft | 436 kts | 264° |
| 2026-05-01 08:46 | 51.89985 | 1.89287 | 18283 ft | 439 kts | 276° |
| 2026-05-01 08:47 | 51.90940 | 1.84571 | 17863 ft | 442 kts | 294° |
| 2026-05-01 08:47 | 51.92379 | 1.80201 | 17482 ft | 439 kts | 296° |
| 2026-05-01 08:47 | 51.93856 | 1.75877 | 17082 ft | 437 kts | 296° |
| 2026-05-01 08:47 | 51.95321 | 1.71582 | 16692 ft | 434 kts | 296° |
| 2026-05-01 08:48 | 51.96763 | 1.67307 | 16316 ft | 432 kts | 296° |
| 2026-05-01 08:48 | 51.98191 | 1.63019 | 15938 ft | 430 kts | 296° |
| 2026-05-01 08:48 | 51.99601 | 1.58744 | 15566 ft | 429 kts | 296° |
| 2026-05-01 08:48 | 52.00996 | 1.54487 | 15189 ft | 427 kts | 296° |
| 2026-05-01 08:49 | 52.01254 | 1.53698 | 15115 ft | 426 kts | 296° |
| 2026-05-01 08:49 | 52.01831 | 1.51932 | 14967 ft | 425 kts | 296° |
| 2026-05-01 08:49 | 52.03211 | 1.47700 | 14601 ft | 422 kts | 296° |
| 2026-05-01 08:49 | 52.04570 | 1.43530 | 14222 ft | 412 kts | 296° |
| 2026-05-01 08:50 | 52.05892 | 1.39466 | 13836 ft | 402 kts | 296° |
| 2026-05-01 08:50 | 52.07183 | 1.35492 | 13449 ft | 392 kts | 295° |
| 2026-05-01 08:50 | 52.08444 | 1.31609 | 13085 ft | 383 kts | 295° |
| 2026-05-01 08:50 | 52.09673 | 1.27816 | 12746 ft | 375 kts | 295° |
| 2026-05-01 08:51 | 52.10846 | 1.24074 | 12418 ft | 366 kts | 289° |
| 2026-05-01 08:51 | 52.11389 | 1.20141 | 12123 ft | 352 kts | 270° |
| 2026-05-01 08:51 | 52.11160 | 1.16262 | 11894 ft | 338 kts | 254° |
| 2026-05-01 08:51 | 52.10590 | 1.12619 | 11651 ft | 329 kts | 251° |
| 2026-05-01 08:52 | 52.09981 | 1.09092 | 11423 ft | 321 kts | 251° |
| 2026-05-01 08:52 | 52.09374 | 1.05631 | 11200 ft | 314 kts | 251° |
| 2026-05-01 08:52 | 52.08785 | 1.02245 | 10974 ft | 308 kts | 251° |
| 2026-05-01 08:52 | 52.08214 | 0.98916 | 10763 ft | 302 kts | 251° |
| 2026-05-01 08:53 | 52.07659 | 0.95652 | 10549 ft | 297 kts | 251° |
| 2026-05-01 08:53 | 52.07117 | 0.92445 | 10334 ft | 292 kts | 251° |
| 2026-05-01 08:53 | 52.06554 | 0.89136 | 10189 ft | 326 kts | 252° |
| 2026-05-01 08:53 | 52.06024 | 0.86009 | 10158 ft | 309 kts | 252° |
| 2026-05-01 08:54 | 52.05465 | 0.82671 | 10134 ft | 288 kts | 252° |
| 2026-05-01 08:54 | 52.04954 | 0.79624 | 9975 ft | 274 kts | 251° |
| 2026-05-01 08:54 | 52.04454 | 0.76667 | 9527 ft | 271 kts | 251° |
| 2026-05-01 08:54 | 52.03953 | 0.73715 | 9133 ft | 269 kts | 251° |
| 2026-05-01 08:55 | 52.03463 | 0.70823 | 8922 ft | 264 kts | 251° |
| 2026-05-01 08:55 | 52.02979 | 0.67981 | 8722 ft | 257 kts | 251° |
| 2026-05-01 08:55 | 52.02513 | 0.65238 | 8512 ft | 247 kts | 251° |
| 2026-05-01 08:55 | 52.02061 | 0.62579 | 8357 ft | 244 kts | 251° |
| 2026-05-01 08:56 | 52.01571 | 0.59957 | 8138 ft | 242 kts | 243° |
| 2026-05-01 08:56 | 52.00697 | 0.57628 | 7823 ft | 242 kts | 232° |
| 2026-05-01 08:56 | 51.99696 | 0.55459 | 7506 ft | 236 kts | 230° |
| 2026-05-01 08:56 | 51.98712 | 0.53376 | 7166 ft | 229 kts | 230° |
| 2026-05-01 08:57 | 51.97793 | 0.51354 | 6972 ft | 215 kts | 232° |
| 2026-05-01 08:57 | 51.96973 | 0.49471 | 6855 ft | 200 kts | 232° |
| 2026-05-01 08:57 | 51.96166 | 0.47610 | 6513 ft | 198 kts | 232° |
| 2026-05-01 08:57 | 51.95362 | 0.45793 | 6116 ft | 198 kts | 229° |
| 2026-05-01 08:58 | 51.94477 | 0.44092 | 5820 ft | 197 kts | 227° |
| 2026-05-01 08:58 | 51.93582 | 0.42415 | 5562 ft | 197 kts | 227° |
| 2026-05-01 08:58 | 51.92685 | 0.40751 | 5321 ft | 195 kts | 227° |
| 2026-05-01 08:58 | 51.91809 | 0.39120 | 5138 ft | 191 kts | 227° |
| 2026-05-01 08:59 | 51.90931 | 0.37489 | 4804 ft | 192 kts | 226° |
| 2026-05-01 08:59 | 51.90056 | 0.35852 | 4595 ft | 191 kts | 227° |
| 2026-05-01 08:59 | 51.89195 | 0.34218 | 4356 ft | 191 kts | 226° |
| 2026-05-01 08:59 | 51.88328 | 0.32595 | 4102 ft | 189 kts | 227° |
| 2026-05-01 09:00 | 51.87480 | 0.30990 | 3910 ft | 185 kts | 227° |
| 2026-05-01 09:00 | 51.86652 | 0.29399 | 3715 ft | 185 kts | 226° |
| 2026-05-01 09:00 | 51.85794 | 0.27862 | 3507 ft | 184 kts | 221° |
| 2026-05-01 09:00 | 51.84876 | 0.26447 | 3261 ft | 181 kts | 221° |
| 2026-05-01 09:01 | 51.83997 | 0.25032 | 3081 ft | 181 kts | 222° |
| 2026-05-01 09:01 | 51.83084 | 0.23593 | 2859 ft | 181 kts | 221° |
| 2026-05-01 09:01 | 51.82201 | 0.22155 | 2671 ft | 185 kts | 221° |
| 2026-05-01 09:01 | 51.81296 | 0.20673 | 2533 ft | 184 kts | 222° |
| 2026-05-01 09:02 | 51.80404 | 0.19227 | 2588 ft | 183 kts | 222° |
| 2026-05-01 09:02 | 51.79492 | 0.17739 | 2524 ft | 186 kts | 222° |
| 2026-05-01 09:02 | 51.78567 | 0.16285 | 2520 ft | 185 kts | 221° |
| 2026-05-01 09:02 | 51.77664 | 0.14847 | 2489 ft | 180 kts | 220° |
| 2026-05-01 09:03 | 51.76788 | 0.13435 | 2500 ft | 179 kts | 222° |
| 2026-05-01 09:03 | 51.75907 | 0.12009 | 2521 ft | 184 kts | 222° |
| 2026-05-01 09:03 | 51.74988 | 0.10533 | 2535 ft | 187 kts | 222° |
| 2026-05-01 09:03 | 51.74076 | 0.09058 | 2492 ft | 182 kts | 222° |
| 2026-05-01 09:04 | 51.73420 | 0.07352 | 2494 ft | 182 kts | 255° |
| 2026-05-01 09:04 | 51.73680 | 0.05356 | 2531 ft | 194 kts | 306° |
| 2026-05-01 09:04 | 51.74784 | 0.04250 | 2495 ft | 184 kts | 356° |
| 2026-05-01 09:04 | 51.75961 | 0.04791 | 2428 ft | 177 kts | 47° |
| 2026-05-01 09:05 | 51.76803 | 0.06172 | 2533 ft | 183 kts | 42° |
| 2026-05-01 09:05 | 51.77826 | 0.07376 | 2521 ft | 181 kts | 43° |
| 2026-05-01 09:05 | 51.78744 | 0.08753 | 2529 ft | 180 kts | 47° |
| 2026-05-01 09:05 | 51.79627 | 0.10110 | 2515 ft | 171 kts | 46° |
| 2026-05-01 09:06 | 51.80516 | 0.11451 | 2320 ft | 176 kts | 46° |
| 2026-05-01 09:06 | 51.81402 | 0.12821 | 2088 ft | 171 kts | 47° |
| 2026-05-01 09:06 | 51.82278 | 0.14042 | 1823 ft | 165 kts | 45° |
| 2026-05-01 09:06 | 51.83087 | 0.15315 | 1620 ft | 165 kts | 47° |
| 2026-05-01 09:07 | 51.83902 | 0.16560 | 1400 ft | 157 kts | 48° |
| 2026-05-01 09:07 | 51.84685 | 0.17741 | 1230 ft | 154 kts | 46° |
| 2026-05-01 09:07 | 51.85456 | 0.18899 | 990 ft | 152 kts | 47° |
| 2026-05-01 09:07 | 51.86222 | 0.20040 | 820 ft | 149 kts | 46° |
| 2026-05-01 09:08 | 51.86990 | 0.21201 | 556 ft | 152 kts | 47° |
| 2026-05-01 09:08 | 51.87750 | 0.22342 | 361 ft | 145 kts | 46° |
| 2026-05-01 09:08 | 51.88418 | 0.23358 | 348 ft | 113 kts | 43° |
| 2026-05-01 09:08 | 51.88880 | 0.24046 | 339 ft | 67 kts | 43° |
| 2026-05-01 09:09 | 51.88957 | 0.24161 | 340 ft | 0 kts | 43° |